sensor_id;sensor_type;location;lat;lon;timestamp;pressure;altitude;pressure_sealevel;temperature;humidity
60583;BME280;46415;47.536;19.066;2022-09-03T00:00:17;100498.47;;;14.60;94.54
60583;BME280;46415;47.536;19.066;2022-09-03T00:03:28;100506.28;;;14.46;96.31
60583;BME280;46415;47.536;19.066;2022-09-03T00:06:37;100496.19;;;14.40;97.71
60583;BME280;46415;47.536;19.066;2022-09-03T00:09:56;100500.97;;;14.31;97.30
60583;BME280;46415;47.536;19.066;2022-09-03T00:13:01;100508.16;;;14.28;96.92
60583;BME280;46415;47.536;19.066;2022-09-03T00:16:08;100502.44;;;14.21;97.36
60583;BME280;46415;47.536;19.066;2022-09-03T00:19:17;100510.09;;;14.09;98.97
60583;BME280;46415;47.536;19.066;2022-09-03T00:22:31;100504.13;;;14.07;98.61
60583;BME280;46415;47.536;19.066;2022-09-03T00:25:55;100505.31;;;14.01;99.64
60583;BME280;46415;47.536;19.066;2022-09-03T00:29:15;100502.88;;;13.98;100.00
60583;BME280;46415;47.536;19.066;2022-09-03T00:32:24;100511.69;;;13.96;100.00
60583;BME280;46415;47.536;19.066;2022-09-03T00:36:02;100498.25;;;13.87;100.00
60583;BME280;46415;47.536;19.066;2022-09-03T00:38:57;100501.72;;;13.88;100.00
60583;BME280;46415;47.536;19.066;2022-09-03T00:48:25;100508.84;;;14.00;100.00
60583;BME280;46415;47.536;19.066;2022-09-03T00:51:50;100506.16;;;13.86;100.00
60583;BME280;46415;47.536;19.066;2022-09-03T00:55:10;100511.13;;;13.75;100.00
60583;BME280;46415;47.536;19.066;2022-09-03T01:01:23;100508.66;;;13.72;100.00
60583;BME280;46415;47.536;19.066;2022-09-03T01:04:39;100506.91;;;13.72;100.00
60583;BME280;46415;47.536;19.066;2022-09-03T01:14:51;100511.03;;;13.61;100.00
60583;BME280;46415;47.536;19.066;2022-09-03T01:31:44;100531.16;;;13.41;100.00
60583;BME280;46415;47.536;19.066;2022-09-03T01:51:28;100536.75;;;13.51;100.00
60583;BME280;46415;47.536;19.066;2022-09-03T01:58:17;100538.41;;;13.36;100.00
60583;BME280;46415;47.536;19.066;2022-09-03T02:01:29;100545.09;;;13.25;100.00
60583;BME280;46415;47.536;19.066;2022-09-03T02:04:34;100538.59;;;13.16;100.00
60583;BME280;46415;47.536;19.066;2022-09-03T02:07:47;100544.00;;;13.12;100.00
60583;BME280;46415;47.536;19.066;2022-09-03T02:10:52;100541.34;;;13.13;100.00
60583;BME280;46415;47.536;19.066;2022-09-03T02:13:59;100543.97;;;13.13;100.00
60583;BME280;46415;47.536;19.066;2022-09-03T02:17:04;100540.56;;;13.11;100.00
60583;BME280;46415;47.536;19.066;2022-09-03T02:20:09;100539.22;;;13.04;100.00
60583;BME280;46415;47.536;19.066;2022-09-03T02:23:13;100532.00;;;12.92;100.00
60583;BME280;46415;47.536;19.066;2022-09-03T02:26:22;100540.88;;;12.88;100.00
60583;BME280;46415;47.536;19.066;2022-09-03T02:29:25;100538.37;;;12.86;100.00
60583;BME280;46415;47.536;19.066;2022-09-03T02:32:29;100542.44;;;12.92;100.00
60583;BME280;46415;47.536;19.066;2022-09-03T02:35:33;100541.66;;;12.90;100.00
60583;BME280;46415;47.536;19.066;2022-09-03T02:38:36;100544.12;;;12.93;100.00
60583;BME280;46415;47.536;19.066;2022-09-03T02:41:38;100535.53;;;12.91;100.00
60583;BME280;46415;47.536;19.066;2022-09-03T02:44:47;100546.34;;;12.83;100.00
60583;BME280;46415;47.536;19.066;2022-09-03T02:47:56;100543.66;;;12.85;100.00
60583;BME280;46415;47.536;19.066;2022-09-03T02:51:00;100535.66;;;12.88;100.00
60583;BME280;46415;47.536;19.066;2022-09-03T02:54:15;100544.44;;;12.87;100.00
60583;BME280;46415;47.536;19.066;2022-09-03T02:57:22;100539.06;;;12.90;100.00
60583;BME280;46415;47.536;19.066;2022-09-03T03:00:29;100546.03;;;12.89;100.00
60583;BME280;46415;47.536;19.066;2022-09-03T03:03:31;100543.91;;;12.80;100.00
60583;BME280;46415;47.536;19.066;2022-09-03T03:06:34;100550.25;;;12.75;100.00
60583;BME280;46415;47.536;19.066;2022-09-03T03:09:37;100552.75;;;12.76;100.00
60583;BME280;46415;47.536;19.066;2022-09-03T03:12:39;100553.59;;;12.77;100.00
60583;BME280;46415;47.536;19.066;2022-09-03T03:15:43;100549.41;;;12.74;100.00
60583;BME280;46415;47.536;19.066;2022-09-03T03:18:45;100541.66;;;12.73;100.00
60583;BME280;46415;47.536;19.066;2022-09-03T03:21:48;100542.50;;;12.73;100.00
60583;BME280;46415;47.536;19.066;2022-09-03T03:24:51;100551.06;;;12.75;100.00
60583;BME280;46415;47.536;19.066;2022-09-03T03:27:54;100548.56;;;12.74;100.00
60583;BME280;46415;47.536;19.066;2022-09-03T03:31:06;100551.47;;;12.67;100.00
60583;BME280;46415;47.536;19.066;2022-09-03T03:34:10;100556.81;;;12.64;100.00
60583;BME280;46415;47.536;19.066;2022-09-03T03:37:12;100563.41;;;12.54;100.00
60583;BME280;46415;47.536;19.066;2022-09-03T03:40:15;100562.16;;;12.44;100.00
60583;BME280;46415;47.536;19.066;2022-09-03T03:43:18;100557.09;;;12.41;100.00
60583;BME280;46415;47.536;19.066;2022-09-03T03:46:22;100559.75;;;12.40;100.00
60583;BME280;46415;47.536;19.066;2022-09-03T03:49:25;100556.25;;;12.41;100.00
60583;BME280;46415;47.536;19.066;2022-09-03T03:52:28;100567.50;;;12.41;100.00
60583;BME280;46415;47.536;19.066;2022-09-03T03:55:30;100569.50;;;12.36;100.00
60583;BME280;46415;47.536;19.066;2022-09-03T03:58:37;100568.50;;;12.39;100.00
60583;BME280;46415;47.536;19.066;2022-09-03T04:01:44;100571.97;;;12.39;100.00
60583;BME280;46415;47.536;19.066;2022-09-03T04:04:47;100562.37;;;12.40;100.00
60583;BME280;46415;47.536;19.066;2022-09-03T04:07:49;100568.34;;;12.42;100.00
60583;BME280;46415;47.536;19.066;2022-09-03T04:10:52;100574.25;;;12.45;100.00
60583;BME280;46415;47.536;19.066;2022-09-03T04:13:55;100581.97;;;12.47;100.00
60583;BME280;46415;47.536;19.066;2022-09-03T04:16:58;100577.62;;;12.47;100.00
60583;BME280;46415;47.536;19.066;2022-09-03T04:20:00;100586.88;;;12.53;100.00
60583;BME280;46415;47.536;19.066;2022-09-03T04:23:04;100588.59;;;12.54;100.00
60583;BME280;46415;47.536;19.066;2022-09-03T04:26:09;100591.19;;;12.54;100.00
60583;BME280;46415;47.536;19.066;2022-09-03T04:29:12;100594.62;;;12.54;100.00
60583;BME280;46415;47.536;19.066;2022-09-03T04:32:15;100598.03;;;12.56;100.00
60583;BME280;46415;47.536;19.066;2022-09-03T04:35:36;100594.41;;;12.59;100.00
60583;BME280;46415;47.536;19.066;2022-09-03T04:38:41;100587.16;;;12.65;100.00
60583;BME280;46415;47.536;19.066;2022-09-03T04:41:44;100591.22;;;12.71;100.00
60583;BME280;46415;47.536;19.066;2022-09-03T04:44:47;100587.94;;;12.67;100.00
60583;BME280;46415;47.536;19.066;2022-09-03T04:48:00;100602.47;;;12.72;100.00
60583;BME280;46415;47.536;19.066;2022-09-03T04:51:13;100606.47;;;12.79;100.00
60583;BME280;46415;47.536;19.066;2022-09-03T04:54:16;100606.72;;;12.91;100.00
60583;BME280;46415;47.536;19.066;2022-09-03T04:57:18;100606.31;;;12.99;100.00
60583;BME280;46415;47.536;19.066;2022-09-03T05:00:22;100609.25;;;13.10;100.00
60583;BME280;46415;47.536;19.066;2022-09-03T05:03:24;100607.22;;;13.17;100.00
60583;BME280;46415;47.536;19.066;2022-09-03T05:06:28;100615.75;;;13.36;100.00
60583;BME280;46415;47.536;19.066;2022-09-03T05:09:33;100602.69;;;13.53;100.00
60583;BME280;46415;47.536;19.066;2022-09-03T05:12:36;100604.25;;;13.57;100.00
60583;BME280;46415;47.536;19.066;2022-09-03T05:15:39;100605.75;;;13.61;100.00
60583;BME280;46415;47.536;19.066;2022-09-03T05:18:45;100607.97;;;13.84;100.00
60583;BME280;46415;47.536;19.066;2022-09-03T05:21:49;100610.44;;;13.87;100.00
60583;BME280;46415;47.536;19.066;2022-09-03T05:24:51;100615.22;;;13.95;100.00
60583;BME280;46415;47.536;19.066;2022-09-03T05:27:54;100619.13;;;14.19;100.00
60583;BME280;46415;47.536;19.066;2022-09-03T05:31:04;100609.53;;;14.36;100.00
60583;BME280;46415;47.536;19.066;2022-09-03T05:34:08;100606.72;;;14.40;100.00
60583;BME280;46415;47.536;19.066;2022-09-03T05:37:20;100609.87;;;14.61;100.00
60583;BME280;46415;47.536;19.066;2022-09-03T05:40:24;100611.56;;;14.62;100.00
60583;BME280;46415;47.536;19.066;2022-09-03T05:43:28;100616.44;;;14.68;100.00
60583;BME280;46415;47.536;19.066;2022-09-03T05:46:32;100606.44;;;14.90;99.80
60583;BME280;46415;47.536;19.066;2022-09-03T05:49:35;100602.19;;;15.03;98.24
60583;BME280;46415;47.536;19.066;2022-09-03T05:52:38;100608.53;;;15.13;97.36
60583;BME280;46415;47.536;19.066;2022-09-03T05:55:41;100610.06;;;15.32;96.25
60583;BME280;46415;47.536;19.066;2022-09-03T05:58:49;100607.50;;;15.46;96.56
60583;BME280;46415;47.536;19.066;2022-09-03T06:01:52;100608.75;;;15.69;94.50
60583;BME280;46415;47.536;19.066;2022-09-03T06:05:01;100617.53;;;15.82;92.43
60583;BME280;46415;47.536;19.066;2022-09-03T06:08:04;100616.59;;;15.83;90.89
60583;BME280;46415;47.536;19.066;2022-09-03T06:11:09;100613.16;;;15.97;90.52
60583;BME280;46415;47.536;19.066;2022-09-03T06:14:13;100613.31;;;15.93;91.44
60583;BME280;46415;47.536;19.066;2022-09-03T06:17:16;100613.31;;;16.08;90.66
60583;BME280;46415;47.536;19.066;2022-09-03T06:20:18;100620.72;;;16.28;88.23
60583;BME280;46415;47.536;19.066;2022-09-03T06:23:22;100608.59;;;16.54;86.61
60583;BME280;46415;47.536;19.066;2022-09-03T06:26:24;100603.03;;;16.72;85.31
60583;BME280;46415;47.536;19.066;2022-09-03T06:29:29;100611.38;;;16.92;84.53
60583;BME280;46415;47.536;19.066;2022-09-03T06:32:32;100609.91;;;17.00;83.67
60583;BME280;46415;47.536;19.066;2022-09-03T06:35:35;100612.34;;;17.16;82.87
60583;BME280;46415;47.536;19.066;2022-09-03T06:38:45;100600.22;;;17.28;81.91
60583;BME280;46415;47.536;19.066;2022-09-03T06:41:48;100602.63;;;17.43;78.79
60583;BME280;46415;47.536;19.066;2022-09-03T06:44:58;100597.09;;;17.61;77.58
60583;BME280;46415;47.536;19.066;2022-09-03T06:48:01;100596.34;;;17.71;77.35
60583;BME280;46415;47.536;19.066;2022-09-03T06:51:13;100593.28;;;17.90;76.40
60583;BME280;46415;47.536;19.066;2022-09-03T06:54:16;100599.87;;;17.95;75.32
60583;BME280;46415;47.536;19.066;2022-09-03T06:57:18;100590.81;;;18.00;73.29
60583;BME280;46415;47.536;19.066;2022-09-03T07:00:21;100595.53;;;18.07;73.18
60583;BME280;46415;47.536;19.066;2022-09-03T07:03:25;100591.47;;;18.03;73.86
60583;BME280;46415;47.536;19.066;2022-09-03T07:06:30;100595.22;;;18.35;73.68
60583;BME280;46415;47.536;19.066;2022-09-03T07:09:33;100595.50;;;18.56;72.95
60583;BME280;46415;47.536;19.066;2022-09-03T07:12:39;100594.75;;;18.78;71.81
60583;BME280;46415;47.536;19.066;2022-09-03T07:15:42;100586.91;;;18.89;71.60
60583;BME280;46415;47.536;19.066;2022-09-03T07:18:45;100592.69;;;18.94;70.08
60583;BME280;46415;47.536;19.066;2022-09-03T07:21:48;100584.56;;;19.08;68.94
60583;BME280;46415;47.536;19.066;2022-09-03T07:24:52;100583.66;;;19.32;67.96
60583;BME280;46415;47.536;19.066;2022-09-03T07:27:54;100584.88;;;19.39;67.05
60583;BME280;46415;47.536;19.066;2022-09-03T07:31:07;100590.16;;;19.50;67.43
60583;BME280;46415;47.536;19.066;2022-09-03T07:34:12;100581.69;;;19.69;66.52
60583;BME280;46415;47.536;19.066;2022-09-03T07:37:15;100583.00;;;19.85;66.76
60583;BME280;46415;47.536;19.066;2022-09-03T07:40:19;100589.44;;;20.04;64.44
60583;BME280;46415;47.536;19.066;2022-09-03T07:43:22;100575.87;;;20.08;63.17
60583;BME280;46415;47.536;19.066;2022-09-03T07:46:26;100573.22;;;20.30;62.79
60583;BME280;46415;47.536;19.066;2022-09-03T07:49:29;100574.78;;;20.22;62.66
60583;BME280;46415;47.536;19.066;2022-09-03T07:52:31;100577.53;;;20.43;62.71
60583;BME280;46415;47.536;19.066;2022-09-03T07:55:34;100578.69;;;20.50;61.33
60583;BME280;46415;47.536;19.066;2022-09-03T07:58:38;100585.59;;;20.62;60.85
60583;BME280;46415;47.536;19.066;2022-09-03T08:01:42;100588.97;;;20.64;61.09
60583;BME280;46415;47.536;19.066;2022-09-03T08:04:45;100581.38;;;20.70;60.27
60583;BME280;46415;47.536;19.066;2022-09-03T08:07:48;100579.91;;;20.77;59.08
60583;BME280;46415;47.536;19.066;2022-09-03T08:10:51;100589.19;;;20.93;58.55
60583;BME280;46415;47.536;19.066;2022-09-03T08:13:57;100591.75;;;21.15;58.17
60583;BME280;46415;47.536;19.066;2022-09-03T08:17:03;100582.59;;;21.19;57.94
60583;BME280;46415;47.536;19.066;2022-09-03T08:20:06;100586.25;;;21.28;56.16
60583;BME280;46415;47.536;19.066;2022-09-03T08:23:10;100575.34;;;21.42;56.38
60583;BME280;46415;47.536;19.066;2022-09-03T08:26:13;100592.81;;;21.64;55.82
60583;BME280;46415;47.536;19.066;2022-09-03T08:29:17;100584.47;;;21.58;55.71
60583;BME280;46415;47.536;19.066;2022-09-03T08:32:20;100583.28;;;21.42;55.98
60583;BME280;46415;47.536;19.066;2022-09-03T08:35:22;100581.34;;;21.44;56.09
60583;BME280;46415;47.536;19.066;2022-09-03T08:38:25;100580.72;;;21.61;55.85
60583;BME280;46415;47.536;19.066;2022-09-03T08:45:00;100587.62;;;22.13;54.45
60583;BME280;46415;47.536;19.066;2022-09-03T08:48:23;100582.63;;;22.20;53.89
60583;BME280;46415;47.536;19.066;2022-09-03T08:51:27;100575.81;;;22.27;54.24
60583;BME280;46415;47.536;19.066;2022-09-03T08:54:31;100586.13;;;22.49;53.17
60583;BME280;46415;47.536;19.066;2022-09-03T08:57:43;100580.28;;;22.55;53.18
60583;BME280;46415;47.536;19.066;2022-09-03T09:07:44;100574.34;;;22.72;51.93
60583;BME280;46415;47.536;19.066;2022-09-03T09:11:01;100571.69;;;22.63;52.71
60583;BME280;46415;47.536;19.066;2022-09-03T09:14:32;100563.63;;;22.74;52.60
60583;BME280;46415;47.536;19.066;2022-09-03T09:17:44;100569.16;;;22.61;52.52
60583;BME280;46415;47.536;19.066;2022-09-03T09:21:12;100561.66;;;22.57;51.72
60583;BME280;46415;47.536;19.066;2022-09-03T09:24:25;100565.00;;;22.68;52.20
60583;BME280;46415;47.536;19.066;2022-09-03T09:27:28;100555.56;;;22.75;51.93
60583;BME280;46415;47.536;19.066;2022-09-03T09:30:31;100557.59;;;23.01;52.05
60583;BME280;46415;47.536;19.066;2022-09-03T09:33:34;100552.44;;;23.09;51.04
60583;BME280;46415;47.536;19.066;2022-09-03T09:36:49;100555.87;;;23.29;49.67
60583;BME280;46415;47.536;19.066;2022-09-03T09:39:55;100555.69;;;23.40;49.55
60583;BME280;46415;47.536;19.066;2022-09-03T09:43:04;100555.00;;;23.38;49.17
60583;BME280;46415;47.536;19.066;2022-09-03T09:46:20;100552.47;;;23.46;49.92
60583;BME280;46415;47.536;19.066;2022-09-03T09:49:37;100550.75;;;23.64;49.46
60583;BME280;46415;47.536;19.066;2022-09-03T09:52:45;100550.56;;;23.29;48.89
60583;BME280;46415;47.536;19.066;2022-09-03T09:55:56;100553.75;;;23.32;50.16
60583;BME280;46415;47.536;19.066;2022-09-03T10:05:26;100545.44;;;23.91;48.50
60583;BME280;46415;47.536;19.066;2022-09-03T10:08:29;100541.66;;;24.21;46.82
60583;BME280;46415;47.536;19.066;2022-09-03T10:11:34;100548.25;;;24.08;47.15
60583;BME280;46415;47.536;19.066;2022-09-03T10:14:46;100551.69;;;24.18;47.35
60583;BME280;46415;47.536;19.066;2022-09-03T10:21:19;100550.16;;;24.43;45.37
60583;BME280;46415;47.536;19.066;2022-09-03T10:24:47;100546.59;;;24.34;46.39
60583;BME280;46415;47.536;19.066;2022-09-03T10:27:52;100548.34;;;24.16;44.79
60583;BME280;46415;47.536;19.066;2022-09-03T10:34:28;100544.78;;;24.52;45.61
60583;BME280;46415;47.536;19.066;2022-09-03T10:41:25;100543.06;;;24.87;43.34
60583;BME280;46415;47.536;19.066;2022-09-03T10:51:17;100540.03;;;24.81;44.17
60583;BME280;46415;47.536;19.066;2022-09-03T10:57:44;100533.91;;;25.33;43.49
60583;BME280;46415;47.536;19.066;2022-09-03T11:01:02;100519.56;;;25.17;43.17
60583;BME280;46415;47.536;19.066;2022-09-03T11:04:22;100528.00;;;25.13;43.66
60583;BME280;46415;47.536;19.066;2022-09-03T11:07:35;100523.84;;;25.44;43.04
60583;BME280;46415;47.536;19.066;2022-09-03T11:10:44;100512.50;;;25.68;40.94
60583;BME280;46415;47.536;19.066;2022-09-03T11:13:51;100507.78;;;25.54;41.04
60583;BME280;46415;47.536;19.066;2022-09-03T11:17:39;100513.75;;;25.48;40.94
60583;BME280;46415;47.536;19.066;2022-09-03T11:20:42;100502.31;;;25.55;41.37
60583;BME280;46415;47.536;19.066;2022-09-03T11:23:50;100514.81;;;25.63;40.05
60583;BME280;46415;47.536;19.066;2022-09-03T11:27:04;100517.97;;;25.58;41.11
60583;BME280;46415;47.536;19.066;2022-09-03T11:30:13;100515.78;;;25.28;41.21
60583;BME280;46415;47.536;19.066;2022-09-03T11:33:20;100517.03;;;25.42;41.67
60583;BME280;46415;47.536;19.066;2022-09-03T11:36:31;100521.41;;;25.85;40.62
60583;BME280;46415;47.536;19.066;2022-09-03T11:39:38;100521.09;;;25.96;40.24
60583;BME280;46415;47.536;19.066;2022-09-03T11:42:42;100519.09;;;25.98;39.79
60583;BME280;46415;47.536;19.066;2022-09-03T11:45:46;100506.41;;;25.76;39.50
60583;BME280;46415;47.536;19.066;2022-09-03T11:48:51;100508.28;;;25.91;39.91
60583;BME280;46415;47.536;19.066;2022-09-03T11:52:01;100514.09;;;25.95;39.34
60583;BME280;46415;47.536;19.066;2022-09-03T11:55:08;100511.22;;;25.80;39.81
60583;BME280;46415;47.536;19.066;2022-09-03T11:58:32;100510.09;;;25.49;40.28
60583;BME280;46415;47.536;19.066;2022-09-03T12:01:36;100517.72;;;25.78;40.66
60583;BME280;46415;47.536;19.066;2022-09-03T12:04:50;100513.25;;;25.86;39.85
60583;BME280;46415;47.536;19.066;2022-09-03T12:14:20;100518.72;;;25.17;40.26
60583;BME280;46415;47.536;19.066;2022-09-03T12:21:20;100522.91;;;25.19;40.76
60583;BME280;46415;47.536;19.066;2022-09-03T12:24:25;100523.97;;;25.35;40.25
60583;BME280;46415;47.536;19.066;2022-09-03T12:27:42;100514.38;;;25.76;39.80
60583;BME280;46415;47.536;19.066;2022-09-03T12:30:49;100506.44;;;25.84;39.22
60583;BME280;46415;47.536;19.066;2022-09-03T12:34:08;100514.41;;;25.84;38.91
60583;BME280;46415;47.536;19.066;2022-09-03T12:37:21;100504.91;;;25.81;39.66
60583;BME280;46415;47.536;19.066;2022-09-03T12:40:45;100502.31;;;25.97;38.48
60583;BME280;46415;47.536;19.066;2022-09-03T12:44:23;100501.84;;;26.18;39.07
60583;BME280;46415;47.536;19.066;2022-09-03T12:47:27;100503.56;;;26.35;38.23
60583;BME280;46415;47.536;19.066;2022-09-03T12:50:39;100495.25;;;26.47;37.02
60583;BME280;46415;47.536;19.066;2022-09-03T12:53:50;100487.91;;;26.40;37.55
60583;BME280;46415;47.536;19.066;2022-09-03T12:56:57;100493.56;;;26.21;38.00
60583;BME280;46415;47.536;19.066;2022-09-03T13:00:06;100491.25;;;26.42;37.33
60583;BME280;46415;47.536;19.066;2022-09-03T13:06:45;100492.25;;;26.58;36.74
60583;BME280;46415;47.536;19.066;2022-09-03T13:09:59;100500.31;;;25.99;37.03
60583;BME280;46415;47.536;19.066;2022-09-03T13:13:26;100493.47;;;25.47;37.98
60583;BME280;46415;47.536;19.066;2022-09-03T13:19:42;100486.12;;;25.41;39.29
60583;BME280;46415;47.536;19.066;2022-09-03T13:30:14;100482.81;;;25.73;38.66
60583;BME280;46415;47.536;19.066;2022-09-03T13:33:23;100477.13;;;25.26;39.29
60583;BME280;46415;47.536;19.066;2022-09-03T13:36:55;100477.03;;;25.51;39.10
60583;BME280;46415;47.536;19.066;2022-09-03T13:40:15;100475.19;;;25.44;38.01
60583;BME280;46415;47.536;19.066;2022-09-03T13:43:42;100478.34;;;25.47;39.34
60583;BME280;46415;47.536;19.066;2022-09-03T13:46:56;100476.38;;;25.49;39.90
60583;BME280;46415;47.536;19.066;2022-09-03T13:50:07;100470.87;;;25.85;39.18
60583;BME280;46415;47.536;19.066;2022-09-03T13:57:04;100468.22;;;27.06;37.13
60583;BME280;46415;47.536;19.066;2022-09-03T14:00:11;100462.97;;;27.29;36.20
60583;BME280;46415;47.536;19.066;2022-09-03T14:07:10;100467.13;;;27.40;35.61
60583;BME280;46415;47.536;19.066;2022-09-03T14:16:58;100467.06;;;27.48;34.71
60583;BME280;46415;47.536;19.066;2022-09-03T14:23:31;100465.94;;;26.95;34.96
60583;BME280;46415;47.536;19.066;2022-09-03T14:26:49;100457.28;;;26.93;35.15
60583;BME280;46415;47.536;19.066;2022-09-03T14:29:59;100458.59;;;26.97;35.62
60583;BME280;46415;47.536;19.066;2022-09-03T14:33:41;100451.63;;;26.72;35.72
60583;BME280;46415;47.536;19.066;2022-09-03T14:50:44;100448.41;;;27.17;34.18
60583;BME280;46415;47.536;19.066;2022-09-03T15:01:02;100436.53;;;27.89;33.84
60583;BME280;46415;47.536;19.066;2022-09-03T15:04:25;100449.09;;;28.87;31.95
60583;BME280;46415;47.536;19.066;2022-09-03T15:07:42;100453.87;;;30.00;29.06
60583;BME280;46415;47.536;19.066;2022-09-03T15:10:51;100449.25;;;30.37;27.86
60583;BME280;46415;47.536;19.066;2022-09-03T15:14:07;100450.09;;;30.37;28.08
60583;BME280;46415;47.536;19.066;2022-09-03T15:17:39;100458.31;;;30.85;27.88
60583;BME280;46415;47.536;19.066;2022-09-03T15:21:04;100458.41;;;31.80;26.42
60583;BME280;46415;47.536;19.066;2022-09-03T15:24:40;100457.03;;;32.43;26.33
60583;BME280;46415;47.536;19.066;2022-09-03T15:31:30;100459.50;;;32.19;25.76
60583;BME280;46415;47.536;19.066;2022-09-03T15:34:52;100456.38;;;33.65;24.06
60583;BME280;46415;47.536;19.066;2022-09-03T15:41:34;100444.06;;;34.70;22.68
60583;BME280;46415;47.536;19.066;2022-09-03T15:44:45;100437.78;;;31.87;26.19
60583;BME280;46415;47.536;19.066;2022-09-03T15:47:54;100439.63;;;30.42;28.12
60583;BME280;46415;47.536;19.066;2022-09-03T15:51:09;100444.09;;;29.93;29.74
60583;BME280;46415;47.536;19.066;2022-09-03T16:01:31;100446.31;;;34.17;24.18
60583;BME280;46415;47.536;19.066;2022-09-03T16:08:22;100440.53;;;35.90;22.08
60583;BME280;46415;47.536;19.066;2022-09-03T16:12:09;100435.69;;;35.69;22.00
60583;BME280;46415;47.536;19.066;2022-09-03T16:15:29;100441.66;;;35.53;22.76
60583;BME280;46415;47.536;19.066;2022-09-03T16:18:39;100446.22;;;34.36;24.33
60583;BME280;46415;47.536;19.066;2022-09-03T16:21:59;100437.03;;;34.87;23.82
60583;BME280;46415;47.536;19.066;2022-09-03T16:25:13;100437.91;;;35.54;22.67
60583;BME280;46415;47.536;19.066;2022-09-03T16:28:54;100438.44;;;34.71;23.22
60583;BME280;46415;47.536;19.066;2022-09-03T16:32:16;100449.59;;;33.94;24.15
60583;BME280;46415;47.536;19.066;2022-09-03T16:35:39;100443.63;;;32.17;26.56
60583;BME280;46415;47.536;19.066;2022-09-03T16:52:24;100448.75;;;25.00;38.91
60583;BME280;46415;47.536;19.066;2022-09-03T16:55:56;100456.16;;;24.89;39.50
60583;BME280;46415;47.536;19.066;2022-09-03T17:06:02;100452.72;;;23.27;44.39
60583;BME280;46415;47.536;19.066;2022-09-03T17:09:29;100462.44;;;22.99;45.96
60583;BME280;46415;47.536;19.066;2022-09-03T17:12:59;100471.97;;;22.73;48.31
60583;BME280;46415;47.536;19.066;2022-09-03T17:23:09;100466.00;;;22.23;48.85
60583;BME280;46415;47.536;19.066;2022-09-03T17:26:25;100479.50;;;22.01;49.86
60583;BME280;46415;47.536;19.066;2022-09-03T17:37:07;100480.78;;;21.56;52.37
60583;BME280;46415;47.536;19.066;2022-09-03T17:40:25;100491.66;;;21.33;54.06
60583;BME280;46415;47.536;19.066;2022-09-03T17:50:23;100494.47;;;20.90;57.68
60583;BME280;46415;47.536;19.066;2022-09-03T17:53:38;100500.28;;;21.14;54.99
60583;BME280;46415;47.536;19.066;2022-09-03T18:03:03;100501.41;;;20.70;58.73
60583;BME280;46415;47.536;19.066;2022-09-03T18:09:39;100507.87;;;20.45;58.25
60583;BME280;46415;47.536;19.066;2022-09-03T18:13:05;100506.97;;;20.35;60.24
60583;BME280;46415;47.536;19.066;2022-09-03T18:19:43;100525.00;;;20.08;63.00
60583;BME280;46415;47.536;19.066;2022-09-03T18:26:41;100532.59;;;19.90;64.09
60583;BME280;46415;47.536;19.066;2022-09-03T18:30:07;100530.94;;;19.78;64.31
60583;BME280;46415;47.536;19.066;2022-09-03T18:33:29;100540.38;;;19.69;66.13
60583;BME280;46415;47.536;19.066;2022-09-03T18:36:50;100545.66;;;19.58;66.05
60583;BME280;46415;47.536;19.066;2022-09-03T18:40:24;100543.50;;;19.52;67.67
60583;BME280;46415;47.536;19.066;2022-09-03T18:44:22;100546.81;;;19.43;68.31
60583;BME280;46415;47.536;19.066;2022-09-03T18:48:07;100553.38;;;19.37;68.25
60583;BME280;46415;47.536;19.066;2022-09-03T19:09:53;100548.91;;;18.93;70.09
60583;BME280;46415;47.536;19.066;2022-09-03T19:13:33;100553.69;;;18.88;70.29
60583;BME280;46415;47.536;19.066;2022-09-03T19:20:30;100562.72;;;18.73;70.74
60583;BME280;46415;47.536;19.066;2022-09-03T19:23:58;100555.28;;;18.67;70.97
60583;BME280;46415;47.536;19.066;2022-09-03T19:35:07;100556.91;;;18.57;73.76
60583;BME280;46415;47.536;19.066;2022-09-03T19:42:45;100560.41;;;18.45;74.69
60583;BME280;46415;47.536;19.066;2022-09-03T19:53:33;100563.00;;;18.33;75.28
60583;BME280;46415;47.536;19.066;2022-09-03T19:56:56;100571.06;;;18.30;75.38
60583;BME280;46415;47.536;19.066;2022-09-03T20:00:18;100573.84;;;18.29;75.35
60583;BME280;46415;47.536;19.066;2022-09-03T20:03:41;100578.47;;;18.25;75.29
60583;BME280;46415;47.536;19.066;2022-09-03T20:07:05;100575.00;;;18.25;75.73
60583;BME280;46415;47.536;19.066;2022-09-03T20:10:30;100583.94;;;18.22;75.18
60583;BME280;46415;47.536;19.066;2022-09-03T20:13:38;100592.13;;;18.18;74.45
60583;BME280;46415;47.536;19.066;2022-09-03T20:20:44;100603.72;;;18.15;76.59
60583;BME280;46415;47.536;19.066;2022-09-03T20:30:28;100608.56;;;18.09;82.48
60583;BME280;46415;47.536;19.066;2022-09-03T20:40:45;100613.84;;;17.96;83.15
60583;BME280;46415;47.536;19.066;2022-09-03T20:47:33;100628.47;;;17.87;83.12
60583;BME280;46415;47.536;19.066;2022-09-03T20:54:04;100624.47;;;17.82;84.28
60583;BME280;46415;47.536;19.066;2022-09-03T21:01:09;100631.53;;;17.69;85.97
60583;BME280;46415;47.536;19.066;2022-09-03T21:08:15;100640.87;;;17.60;89.37
60583;BME280;46415;47.536;19.066;2022-09-03T21:14:41;100638.72;;;17.52;89.70
60583;BME280;46415;47.536;19.066;2022-09-03T21:18:14;100641.66;;;17.48;90.63
60583;BME280;46415;47.536;19.066;2022-09-03T21:21:44;100642.19;;;17.53;90.72
60583;BME280;46415;47.536;19.066;2022-09-03T21:25:04;100644.37;;;17.46;90.81